Time;durP1;ratioP1;P1;durP2;ratioP2;P2;SDS_P1;SDS_P2;PMS_P1;PMS_P2;Temp;Humidity;BMP_temperature;BMP_pressure;BME280_temperature;BME280_humidity;BME280_pressure;Samples;Min_cycle;Max_cycle;Signal;HPM_P1;HPM_P2
2022/01/26 00:06:22;;;;;;;12.38;11.07;;;18.10;53.60;;;;;;10509495;28;20040;-58
2022/01/26 00:11:23;;;;;;;12.10;9.52;;;18.10;53.60;;;;;;10503354;28;20166;-58
2022/01/26 00:21:33;;;;;;;13.05;9.95;;;18.10;53.50;;;;;;10480088;28;20040;-58
2022/01/26 00:27:00;;;;;;;11.95;10.02;;;18.00;53.50;;;;;;10493955;28;20063;-58
2022/01/26 00:42:23;;;;;;;13.23;10.77;;;18.00;53.70;;;;;;10524644;28;20586;-58
2022/01/26 00:47:24;;;;;;;12.95;10.60;;;18.00;53.60;;;;;;10503838;28;20032;-57
2022/01/26 00:52:38;;;;;;;12.63;10.70;;;18.10;53.40;;;;;;10493677;28;20043;-58
2022/01/26 00:57:40;;;;;;;13.13;10.57;;;18.10;53.20;;;;;;10496838;28;20025;-58
2022/01/26 01:02:40;;;;;;;13.57;10.05;;;18.10;53.00;;;;;;10492154;28;20103;-58
2022/01/26 01:07:43;;;;;;;11.82;9.77;;;18.20;52.80;;;;;;10496584;28;20029;-58
2022/01/26 01:12:44;;;;;;;12.40;10.07;;;18.10;52.90;;;;;;10487550;28;20028;-57
2022/01/26 01:17:51;;;;;;;11.68;9.57;;;18.10;52.90;;;;;;10531983;28;20469;-58
2022/01/26 01:23:14;;;;;;;11.57;10.35;;;18.10;53.00;;;;;;10520569;28;20026;-58
2022/01/26 01:28:53;;;;;;;13.88;10.38;;;18.10;53.00;;;;;;10517336;28;20456;-58
2022/01/26 01:33:45;;;;;;;12.50;10.32;;;18.10;53.10;;;;;;10490692;28;20485;-58
2022/01/26 01:38:46;;;;;;;12.82;9.77;;;18.10;53.00;;;;;;10530239;28;20492;-58
2022/01/26 01:43:47;;;;;;;11.25;9.93;;;18.10;53.10;;;;;;10465306;28;20036;-59
2022/01/26 01:48:48;;;;;;;13.23;10.23;;;18.10;53.00;;;;;;10488559;28;20434;-57
2022/01/26 01:53:49;;;;;;;11.07;9.43;;;18.00;53.00;;;;;;10505804;28;20035;-58
2022/01/26 01:58:50;;;;;;;11.93;10.05;;;18.00;52.90;;;;;;10504935;28;20119;-58
2022/01/26 02:03:52;;;;;;;12.05;10.55;;;18.10;53.00;;;;;;10490596;28;20017;-58
2022/01/26 02:08:52;;;;;;;13.10;10.52;;;18.10;52.80;;;;;;10471331;28;20068;-58
2022/01/26 02:56:04;;;;;;;12.48;10.63;;;18.10;52.50;;;;;;10527749;28;20064;-58
2022/01/26 03:06:32;;;;;;;12.73;9.52;;;18.10;52.50;;;;;;10500111;28;20047;-58
2022/01/26 03:11:36;;;;;;;12.07;9.83;;;18.00;52.40;;;;;;10494713;28;20031;-58
2022/01/26 03:16:43;;;;;;;12.63;10.50;;;18.10;52.50;;;;;;10528510;28;20026;-59
2022/01/26 03:28:16;;;;;;;12.05;9.32;;;18.10;52.40;;;;;;10507975;28;20044;-59
2022/01/26 03:33:07;;;;;;;11.90;9.52;;;18.10;52.40;;;;;;10509637;28;20093;-58
2022/01/26 03:38:07;;;;;;;11.45;9.63;;;18.10;52.30;;;;;;10489491;28;20040;-58
2022/01/26 03:43:08;;;;;;;11.18;9.85;;;18.10;52.40;;;;;;10510479;28;20024;-59
2022/01/26 03:48:08;;;;;;;11.68;8.73;;;18.10;52.40;;;;;;10504386;28;20076;-58
2022/01/26 03:53:09;;;;;;;11.68;9.52;;;18.10;52.30;;;;;;10527167;28;20544;-58
2022/01/26 03:58:10;;;;;;;11.45;9.75;;;18.10;52.40;;;;;;10526315;28;20027;-59
2022/01/26 04:03:11;;;;;;;11.05;9.05;;;18.20;52.50;;;;;;10513022;28;20116;-58
2022/01/26 04:08:18;;;;;;;11.63;8.82;;;18.10;52.50;;;;;;10490240;28;20035;-58
2022/01/26 04:13:19;;;;;;;11.73;9.18;;;18.10;52.50;;;;;;10521016;28;20032;-58
2022/01/26 04:18:26;;;;;;;10.13;8.57;;;18.10;52.50;;;;;;10479906;28;20119;-55
2022/01/26 04:23:45;;;;;;;11.25;9.02;;;18.10;52.60;;;;;;10494521;28;20024;-57
2022/01/26 04:28:57;;;;;;;10.32;8.13;;;18.10;52.50;;;;;;10495742;28;20027;-57
2022/01/26 04:33:58;;;;;;;11.18;8.80;;;18.10;52.60;;;;;;10500040;28;20397;-57
2022/01/26 04:39:04;;;;;;;11.27;9.45;;;18.10;52.50;;;;;;10495913;28;20036;-58
2022/01/26 04:44:20;;;;;;;10.68;8.85;;;18.10;52.60;;;;;;10522153;28;20357;-57
2022/01/26 04:49:22;;;;;;;11.00;8.80;;;18.10;52.50;;;;;;10504912;28;20416;-58
2022/01/26 04:54:22;;;;;;;12.38;9.15;;;18.10;52.50;;;;;;10490232;28;20032;-58
2022/01/26 04:59:23;;;;;;;11.20;8.85;;;18.10;52.40;;;;;;10521617;28;20028;-58
2022/01/26 05:04:24;;;;;;;10.23;8.18;;;18.20;52.40;;;;;;10493155;28;20028;-58
2022/01/26 05:09:25;;;;;;;11.18;8.95;;;18.20;52.50;;;;;;10490948;28;20481;-57
2022/01/26 05:14:25;;;;;;;12.13;9.90;;;18.20;52.50;;;;;;10496324;28;20073;-57
2022/01/26 05:19:26;;;;;;;9.95;8.90;;;18.20;52.40;;;;;;10518743;28;20119;-57
2022/01/26 05:24:27;;;;;;;10.63;8.75;;;18.00;52.60;;;;;;10510198;28;20023;-58
2022/01/26 05:29:28;;;;;;;11.38;8.40;;;18.10;52.70;;;;;;10479181;28;20036;-57
2022/01/26 05:34:29;;;;;;;10.32;8.57;;;18.00;53.40;;;;;;10493652;28;20048;-58
2022/01/26 05:39:32;;;;;;;12.00;9.15;;;18.00;52.80;;;;;;10515524;28;20028;-58
2022/01/26 05:44:32;;;;;;;10.93;8.60;;;18.00;52.80;;;;;;10493422;28;20032;-57
2022/01/26 05:49:33;;;;;;;11.45;9.10;;;18.00;52.70;;;;;;10535308;28;20032;-58
2022/01/26 05:54:34;;;;;;;16.02;9.48;;;18.00;53.20;;;;;;10512780;28;20107;-58
2022/01/26 05:59:34;;;;;;;13.65;10.15;;;18.00;53.10;;;;;;10535224;28;20032;-57
2022/01/26 06:04:35;;;;;;;12.65;10.27;;;18.20;53.40;;;;;;10531160;28;20035;-59
2022/01/26 06:09:36;;;;;;;14.13;11.25;;;18.10;53.20;;;;;;10498681;28;20504;-58
2022/01/26 06:14:37;;;;;;;15.77;10.55;;;18.20;54.40;;;;;;10480300;28;20028;-60
2022/01/26 06:19:38;;;;;;;13.63;10.45;;;18.20;55.50;;;;;;10499125;28;20032;-59
2022/01/26 06:24:38;;;;;;;12.75;10.25;;;18.20;55.60;;;;;;10518554;28;20503;-59
2022/01/26 06:29:39;;;;;;;16.65;10.90;;;18.10;56.00;;;;;;10499685;28;20036;-60
2022/01/26 06:34:40;;;;;;;14.65;10.07;;;18.10;55.90;;;;;;10500295;28;20045;-57
2022/01/26 06:39:41;;;;;;;19.98;10.48;;;18.10;55.90;;;;;;10492314;28;20035;-58
2022/01/26 06:45:06;;;;;;;15.65;9.50;;;18.00;56.40;;;;;;10514034;28;20024;-58
2022/01/26 06:50:07;;;;;;;21.15;12.10;;;18.00;57.10;;;;;;10528977;28;20059;-57
2022/01/26 06:55:09;;;;;;;23.00;11.93;;;18.10;56.70;;;;;;10517685;28;20031;-58
2022/01/26 07:00:12;;;;;;;22.58;12.02;;;18.10;56.40;;;;;;10506323;28;20035;-58
2022/01/26 07:05:13;;;;;;;18.20;11.85;;;18.00;56.20;;;;;;10508672;28;20032;-55
2022/01/26 07:10:14;;;;;;;19.85;11.57;;;17.90;56.50;;;;;;10494216;28;20033;-56
2022/01/26 07:25:38;;;;;;;23.13;14.15;;;17.90;55.60;;;;;;10507016;28;20037;-56
2022/01/26 07:30:39;;;;;;;21.90;12.63;;;17.90;55.40;;;;;;10513813;28;20384;-56
2022/01/26 07:35:40;;;;;;;21.50;11.88;;;17.90;55.30;;;;;;10488850;28;20040;-56
2022/01/26 07:40:41;;;;;;;21.98;13.73;;;18.00;55.20;;;;;;10481424;28;20029;-56
2022/01/26 07:45:42;;;;;;;24.50;14.00;;;17.90;55.20;;;;;;10502938;28;20484;-57
2022/01/26 07:50:43;;;;;;;21.35;13.27;;;17.90;55.20;;;;;;10516344;28;20059;-55
2022/01/26 07:55:44;;;;;;;20.70;12.60;;;17.90;55.00;;;;;;10482363;28;20116;-56
2022/01/26 08:00:45;;;;;;;16.90;13.25;;;17.90;55.00;;;;;;10480042;28;20032;-56
2022/01/26 08:05:46;;;;;;;22.00;14.13;;;17.90;54.60;;;;;;10490968;28;20024;-56
2022/01/26 08:10:49;;;;;;;17.40;11.93;;;17.90;54.60;;;;;;10493679;28;20035;-56
2022/01/26 08:15:50;;;;;;;18.98;13.90;;;17.90;54.60;;;;;;10503362;28;20028;-56
2022/01/26 08:20:51;;;;;;;18.27;14.07;;;17.90;54.50;;;;;;10494307;28;20033;-56
2022/01/26 08:25:52;;;;;;;18.83;14.05;;;17.90;54.70;;;;;;10495111;28;20127;-57
2022/01/26 08:30:53;;;;;;;18.98;13.95;;;17.90;54.60;;;;;;10493261;28;20161;-57
2022/01/26 08:35:54;;;;;;;17.17;11.18;;;17.90;54.50;;;;;;10516975;28;20040;-56
2022/01/26 08:40:55;;;;;;;17.58;13.50;;;17.80;54.50;;;;;;10524789;28;20028;-57
2022/01/26 08:45:56;;;;;;;19.60;12.95;;;17.90;54.40;;;;;;10479575;28;20036;-56
2022/01/26 08:50:56;;;;;;;15.02;11.45;;;17.80;54.40;;;;;;10479064;28;20032;-56
2022/01/26 08:55:58;;;;;;;15.35;11.50;;;17.80;54.60;;;;;;10495295;28;20040;-56
2022/01/26 09:01:00;;;;;;;18.77;14.80;;;17.80;54.40;;;;;;10473811;28;20103;-55
2022/01/26 09:06:00;;;;;;;17.08;12.82;;;17.80;54.50;;;;;;10522728;28;20032;-56
2022/01/26 09:11:02;;;;;;;18.13;13.15;;;17.70;54.40;;;;;;10497822;28;20099;-56
2022/01/26 09:16:08;;;;;;;18.38;13.50;;;17.80;54.40;;;;;;10498257;28;20032;-56
2022/01/26 09:21:09;;;;;;;20.25;14.93;;;17.70;54.10;;;;;;10517642;28;20085;-55
2022/01/26 09:26:10;;;;;;;18.85;12.95;;;17.80;54.00;;;;;;10513595;28;20028;-55
2022/01/26 09:31:11;;;;;;;18.95;14.15;;;17.80;54.00;;;;;;10505616;28;20039;-56
2022/01/26 09:36:12;;;;;;;18.25;13.38;;;17.90;54.20;;;;;;10510644;28;20055;-56
2022/01/26 09:41:13;;;;;;;22.75;13.95;;;17.90;54.60;;;;;;10490627;28;20364;-59
2022/01/26 09:46:15;;;;;;;26.27;15.13;;;17.90;55.90;;;;;;10511518;28;20039;-58
2022/01/26 09:51:18;;;;;;;22.50;14.95;;;17.80;56.50;;;;;;10520726;28;20036;-57
2022/01/26 09:56:19;;;;;;;19.13;14.77;;;17.70;56.90;;;;;;10534786;28;20492;-57
2022/01/26 10:01:20;;;;;;;17.08;12.07;;;17.70;56.80;;;;;;10504001;28;20024;-58
2022/01/26 10:06:27;;;;;;;31.15;15.23;;;17.80;55.90;;;;;;10519843;28;20020;-57
2022/01/26 10:22:33;;;;;;;18.20;12.93;;;17.70;55.90;;;;;;10468085;28;20510;-56
2022/01/26 10:27:48;;;;;;;19.17;14.63;;;17.80;55.40;;;;;;10508269;28;20471;-59
2022/01/26 10:32:49;;;;;;;18.13;13.02;;;17.80;55.40;;;;;;10506364;28;20033;-57
2022/01/26 10:37:55;;;;;;;23.23;14.63;;;17.80;55.50;;;;;;10523157;28;20115;-57
2022/01/26 10:43:09;;;;;;;19.02;13.40;;;17.80;55.40;;;;;;10499269;28;20031;-56
2022/01/26 10:53:37;;;;;;;25.08;13.88;;;17.70;55.50;;;;;;10511620;28;20028;-57
2022/01/26 10:58:37;;;;;;;23.88;12.20;;;17.70;55.80;;;;;;10515130;28;20480;-56
2022/01/26 11:03:38;;;;;;;22.58;12.95;;;17.90;55.90;;;;;;10518361;28;20031;-56
2022/01/26 11:08:41;;;;;;;25.48;12.40;;;17.80;56.00;;;;;;10528571;28;20361;-56
2022/01/26 11:13:41;;;;;;;17.50;10.35;;;17.70;56.60;;;;;;10511243;28;20433;-57
2022/01/26 11:18:51;;;;;;;16.95;11.02;;;17.70;56.90;;;;;;10526042;28;20032;-56
2022/01/26 11:24:19;;;;;;;17.42;10.52;;;17.70;56.70;;;;;;10538272;28;20566;-56
2022/01/26 11:29:31;;;;;;;18.75;10.73;;;17.80;57.30;;;;;;10498773;28;20028;-58
2022/01/26 11:34:34;;;;;;;17.77;10.95;;;17.70;56.60;;;;;;10493092;28;20139;-58
2022/01/26 11:45:35;;;;;;;15.63;10.40;;;17.70;57.50;;;;;;10493123;28;20036;-59
2022/01/26 11:50:42;;;;;;;17.45;9.57;;;17.60;58.00;;;;;;10504056;28;20045;-58
2022/01/26 11:55:52;;;;;;;17.25;10.23;;;17.60;58.00;;;;;;10494807;28;20040;-58
2022/01/26 12:01:16;;;;;;;;;;;17.60;58.40;;;;;;10509971;28;20456;-57
2022/01/26 12:06:36;;;;;;;15.38;9.55;;;17.60;57.60;;;;;;10513922;28;19956;-58
2022/01/26 12:11:37;;;;;;;13.23;9.35;;;17.60;57.70;;;;;;10504919;28;20024;-57
2022/01/26 12:16:45;;;;;;;13.57;9.50;;;17.70;57.30;;;;;;10522434;28;20032;-56
2022/01/26 12:43:07;;;;;;;17.80;8.48;;;17.70;57.50;;;;;;10495428;28;20036;-60
2022/01/26 12:48:10;;;;;;;20.85;9.50;;;17.80;57.30;;;;;;10505583;28;20032;-58
2022/01/26 12:53:11;;;;;;;18.50;9.73;;;17.60;57.30;;;;;;10506126;28;20062;-58
2022/01/26 12:58:22;;;;;;;20.05;8.82;;;17.70;56.90;;;;;;10484225;28;20372;-57
2022/01/26 13:03:23;;;;;;;15.13;8.00;;;17.80;56.70;;;;;;10488440;28;20061;-58
2022/01/26 13:08:24;;;;;;;17.77;9.93;;;17.80;56.50;;;;;;10480231;28;20032;-57
2022/01/26 13:13:32;;;;;;;12.73;7.75;;;17.70;56.50;;;;;;10517353;28;20103;-58
2022/01/26 13:19:05;;;;;;;14.23;7.93;;;17.80;56.40;;;;;;10483159;28;20036;-59
2022/01/26 13:24:26;;;;;;;23.45;9.80;;;17.70;56.50;;;;;;10525619;28;20060;-55
2022/01/26 13:29:50;;;;;;;21.58;8.63;;;17.70;56.90;;;;;;10502007;28;20028;-57
2022/01/26 13:51:02;;;;;;;19.35;8.93;;;17.70;57.90;;;;;;10500136;28;20024;-58
2022/01/26 13:56:15;;;;;;;25.17;7.88;;;17.70;57.70;;;;;;10517124;28;20029;-58
2022/01/26 14:01:19;;;;;;;15.98;9.07;;;17.70;57.70;;;;;;10515403;28;20027;-58
2022/01/26 14:06:20;;;;;;;22.35;8.50;;;17.70;57.50;;;;;;10507319;28;20032;-58
2022/01/26 14:11:21;;;;;;;30.08;9.43;;;17.80;57.60;;;;;;10488469;28;20020;-57
2022/01/26 14:16:24;;;;;;;22.70;9.18;;;17.80;57.70;;;;;;10506043;28;20039;-58
2022/01/26 14:21:41;;;;;;;23.08;9.30;;;17.70;57.50;;;;;;10503313;28;20103;-58
2022/01/26 14:26:47;;;;;;;24.55;9.07;;;17.80;58.00;;;;;;10519970;28;20397;-58
2022/01/26 15:08:44;;;;;;;19.15;8.18;;;17.70;58.80;;;;;;10495694;28;20043;-57
2022/01/26 15:08:58;;;;;;;14.95;8.05;;;17.70;60.00;;;;;;10500442;28;20040;-57
2022/01/26 15:51:10;;;;;;;19.70;8.40;;;17.80;59.10;;;;;;10500402;28;20032;-54
2022/01/26 16:35:07;;;;;;;21.43;9.50;;;17.60;57.40;;;;;;10496693;28;20048;-58
2022/01/26 16:35:14;;;;;;;20.77;9.55;;;17.70;57.80;;;;;;10507827;28;20044;-54
2022/01/26 18:15:16;;;;;;;17.42;10.70;;;17.20;63.80;;;;;;10483814;28;20485;-57
2022/01/26 18:40:40;;;;;;;19.70;10.00;;;17.50;61.40;;;;;;10542153;28;20388;-59
2022/01/26 18:51:02;;;;;;;18.63;10.10;;;17.60;60.60;;;;;;10536945;28;20040;-58
2022/01/26 18:56:03;;;;;;;20.15;10.13;;;17.60;60.60;;;;;;10506958;28;20106;-59
2022/01/26 19:01:03;;;;;;;15.48;9.25;;;17.60;60.50;;;;;;10501019;28;20025;-58
2022/01/26 19:06:04;;;;;;;14.18;9.10;;;17.70;60.40;;;;;;10520025;28;20115;-59
2022/01/26 19:11:08;;;;;;;15.07;9.95;;;17.70;60.30;;;;;;10482642;28;20162;-58
2022/01/26 19:16:25;;;;;;;12.85;9.55;;;17.70;60.10;;;;;;10515963;28;20036;-54
2022/01/26 19:26:32;;;;;;;12.75;8.15;;;17.70;60.10;;;;;;10502790;28;20049;-59
2022/01/26 19:43:30;;;;;;;16.60;10.40;;;17.80;59.90;;;;;;10499487;28;20036;-58
2022/01/26 19:52:47;;;;;;;13.88;10.32;;;17.80;60.10;;;;;;10523016;28;20035;-58
2022/01/26 19:57:48;;;;;;;15.48;9.40;;;17.80;60.30;;;;;;10498541;28;20020;-58
2022/01/26 20:02:49;;;;;;;12.55;8.18;;;17.80;60.20;;;;;;10520250;28;20024;-58
2022/01/26 20:07:57;;;;;;;13.45;7.68;;;17.80;60.10;;;;;;10521581;28;20036;-58
2022/01/26 20:13:04;;;;;;;12.77;8.35;;;17.70;60.10;;;;;;10534545;28;20431;-58
2022/01/26 20:18:05;;;;;;;11.77;7.90;;;17.80;60.10;;;;;;10518386;28;20036;-58
2022/01/26 20:23:14;;;;;;;13.48;8.60;;;17.80;59.90;;;;;;10673940;27;20118;-55
2022/01/26 20:28:16;;;;;;;13.40;8.10;;;17.80;60.00;;;;;;10617572;27;20027;-56
2022/01/26 20:33:17;;;;;;;10.73;7.93;;;17.80;59.90;;;;;;10612829;27;20046;-56
2022/01/26 20:38:18;;;;;;;11.80;7.43;;;17.80;59.90;;;;;;10628607;27;20539;-56
2022/01/26 20:43:19;;;;;;;13.45;8.45;;;17.70;59.90;;;;;;10604370;27;20062;-56
2022/01/26 20:48:20;;;;;;;12.60;8.57;;;17.60;59.90;;;;;;10616218;28;20031;-55
2022/01/26 20:53:21;;;;;;;14.48;8.27;;;17.60;59.80;;;;;;10616253;27;20437;-57
2022/01/26 20:58:21;;;;;;;10.20;7.30;;;17.60;59.50;;;;;;10652017;27;20367;-56
2022/01/26 21:03:23;;;;;;;11.93;7.65;;;17.70;59.00;;;;;;10598236;27;20082;-57
2022/01/26 21:08:23;;;;;;;10.65;7.30;;;17.80;58.80;;;;;;10624179;27;20020;-57
2022/01/26 21:13:24;;;;;;;10.48;6.85;;;17.90;58.30;;;;;;10613234;27;20026;-57
2022/01/26 21:18:29;;;;;;;13.40;8.13;;;18.00;57.90;;;;;;10622069;27;20109;-56
2022/01/26 21:23:30;;;;;;;9.18;6.90;;;18.00;57.60;;;;;;10621142;27;20086;-56
2022/01/26 21:28:31;;;;;;;11.00;7.90;;;18.10;57.40;;;;;;10657546;27;20026;-57
2022/01/26 21:33:34;;;;;;;9.85;7.50;;;18.10;57.20;;;;;;10571937;28;20510;-57
2022/01/26 21:38:40;;;;;;;10.73;7.63;;;18.10;57.00;;;;;;10587626;27;20399;-56
2022/01/26 21:43:41;;;;;;;9.30;7.13;;;18.10;57.10;;;;;;10596814;27;20098;-57
2022/01/26 21:48:42;;;;;;;11.60;7.82;;;18.10;57.00;;;;;;10626998;27;20109;-57
2022/01/26 21:53:42;;;;;;;9.60;7.38;;;18.10;56.90;;;;;;10603070;27;20032;-56
2022/01/26 21:58:43;;;;;;;10.27;7.03;;;18.00;57.10;;;;;;10592631;27;20102;-57
2022/01/26 22:03:44;;;;;;;9.10;5.97;;;18.00;57.00;;;;;;10599806;27;20019;-55
2022/01/26 22:08:45;;;;;;;8.65;6.60;;;18.00;57.00;;;;;;10579434;27;20135;-57
2022/01/26 22:13:46;;;;;;;10.27;6.95;;;18.00;56.90;;;;;;10584407;28;20042;-57
2022/01/26 22:18:47;;;;;;;10.27;7.00;;;18.00;56.80;;;;;;10584056;28;20050;-57
2022/01/26 22:23:48;;;;;;;10.00;7.38;;;18.00;56.70;;;;;;10579442;27;20046;-56
2022/01/26 22:28:50;;;;;;;8.43;6.85;;;18.00;56.60;;;;;;10579455;27;20047;-55
2022/01/26 22:33:52;;;;;;;10.20;6.53;;;18.00;56.60;;;;;;10594289;27;20066;-56
2022/01/26 22:38:53;;;;;;;9.35;6.85;;;18.00;56.70;;;;;;10583469;28;20039;-55
2022/01/26 22:43:54;;;;;;;10.93;6.63;;;18.00;56.60;;;;;;10593966;27;20026;-57
2022/01/26 22:48:56;;;;;;;7.55;6.20;;;18.00;56.60;;;;;;10590417;27;20104;-55
2022/01/26 22:53:56;;;;;;;8.25;6.22;;;18.00;56.60;;;;;;10580830;27;20499;-58
2022/01/26 22:58:57;;;;;;;8.00;6.03;;;18.00;56.50;;;;;;10579070;27;20035;-56
2022/01/26 23:03:58;;;;;;;8.43;6.43;;;18.00;56.50;;;;;;10577012;27;20447;-57
2022/01/26 23:08:59;;;;;;;8.70;6.22;;;18.00;56.50;;;;;;10582539;28;20458;-56
2022/01/26 23:14:02;;;;;;;9.13;6.25;;;18.00;56.30;;;;;;10582014;27;20034;-57
2022/01/26 23:19:05;;;;;;;7.38;6.15;;;18.10;56.00;;;;;;10590866;27;20167;-57
2022/01/26 23:24:08;;;;;;;9.60;6.25;;;18.10;55.70;;;;;;10557768;27;20386;-56
2022/01/26 23:29:40;;;;;;;7.60;5.60;;;18.10;55.90;;;;;;10596203;27;20027;-56
